sensor_id;sensor_type;location;lat;lon;timestamp;temperature;humidity
64652;HTU21D;51062;45.120;37.660;2023-07-13T00:01:29;20.68;72.17
64652;HTU21D;51062;45.120;37.660;2023-07-13T00:03:57;20.60;72.29
64652;HTU21D;51062;45.120;37.660;2023-07-13T00:06:23;20.55;72.38
64652;HTU21D;51062;45.120;37.660;2023-07-13T00:08:49;20.49;72.44
64652;HTU21D;51062;45.120;37.660;2023-07-13T00:11:16;20.45;72.50
64652;HTU21D;51062;45.120;37.660;2023-07-13T00:13:43;20.40;72.58
64652;HTU21D;51062;45.120;37.660;2023-07-13T00:16:11;20.35;72.63
64652;HTU21D;51062;45.120;37.660;2023-07-13T00:18:37;20.32;72.64
64652;HTU21D;51062;45.120;37.660;2023-07-13T00:21:04;20.29;72.68
64652;HTU21D;51062;45.120;37.660;2023-07-13T00:23:38;20.26;72.74
64652;HTU21D;51062;45.120;37.660;2023-07-13T00:26:07;20.21;72.74
64652;HTU21D;51062;45.120;37.660;2023-07-13T00:28:33;20.16;72.83
64652;HTU21D;51062;45.120;37.660;2023-07-13T00:31:00;20.12;72.87
64652;HTU21D;51062;45.120;37.660;2023-07-13T00:33:27;20.07;72.93
64652;HTU21D;51062;45.120;37.660;2023-07-13T00:35:55;20.05;72.98
64652;HTU21D;51062;45.120;37.660;2023-07-13T00:38:22;20.02;73.00
64652;HTU21D;51062;45.120;37.660;2023-07-13T00:40:49;19.98;73.04
64652;HTU21D;51062;45.120;37.660;2023-07-13T00:43:23;19.96;73.09
64652;HTU21D;51062;45.120;37.660;2023-07-13T00:48:19;19.91;73.10
64652;HTU21D;51062;45.120;37.660;2023-07-13T00:50:49;19.89;73.10
64652;HTU21D;51062;45.120;37.660;2023-07-13T00:53:17;19.86;73.15
64652;HTU21D;51062;45.120;37.660;2023-07-13T00:55:44;19.82;73.21
64652;HTU21D;51062;45.120;37.660;2023-07-13T00:58:11;19.79;73.27
64652;HTU21D;51062;45.120;37.660;2023-07-13T01:00:38;19.77;73.30
64652;HTU21D;51062;45.120;37.660;2023-07-13T01:03:05;19.74;73.34
64652;HTU21D;51062;45.120;37.660;2023-07-13T01:05:34;19.73;73.41
64652;HTU21D;51062;45.120;37.660;2023-07-13T01:08:02;19.72;73.38
64652;HTU21D;51062;45.120;37.660;2023-07-13T01:10:29;19.72;73.38
64652;HTU21D;51062;45.120;37.660;2023-07-13T01:13:08;19.73;73.36
64652;HTU21D;51062;45.120;37.660;2023-07-13T01:15:37;19.71;73.37
64652;HTU21D;51062;45.120;37.660;2023-07-13T01:18:19;19.69;73.40
64652;HTU21D;51062;45.120;37.660;2023-07-13T01:21:04;19.68;73.44
64652;HTU21D;51062;45.120;37.660;2023-07-13T01:23:32;19.68;73.41
64652;HTU21D;51062;45.120;37.660;2023-07-13T01:25:59;19.68;73.45
64652;HTU21D;51062;45.120;37.660;2023-07-13T01:28:26;19.67;73.51
64652;HTU21D;51062;45.120;37.660;2023-07-13T01:30:55;19.66;73.51
64652;HTU21D;51062;45.120;37.660;2023-07-13T01:33:22;19.63;73.51
64652;HTU21D;51062;45.120;37.660;2023-07-13T01:35:49;19.61;73.53
64652;HTU21D;51062;45.120;37.660;2023-07-13T01:38:18;19.60;73.58
64652;HTU21D;51062;45.120;37.660;2023-07-13T01:40:44;19.58;73.58
64652;HTU21D;51062;45.120;37.660;2023-07-13T01:43:10;19.57;73.62
64652;HTU21D;51062;45.120;37.660;2023-07-13T01:45:37;19.54;73.67
64652;HTU21D;51062;45.120;37.660;2023-07-13T01:48:03;19.53;73.69
64652;HTU21D;51062;45.120;37.660;2023-07-13T01:50:33;19.46;73.79
64652;HTU21D;51062;45.120;37.660;2023-07-13T01:52:59;19.43;73.86
64652;HTU21D;51062;45.120;37.660;2023-07-13T01:55:25;19.42;73.93
64652;HTU21D;51062;45.120;37.660;2023-07-13T01:57:51;19.41;73.96
64652;HTU21D;51062;45.120;37.660;2023-07-13T02:00:18;19.41;73.99
64652;HTU21D;51062;45.120;37.660;2023-07-13T02:02:47;19.43;73.98
64652;HTU21D;51062;45.120;37.660;2023-07-13T02:05:14;19.43;73.96
64652;HTU21D;51062;45.120;37.660;2023-07-13T02:07:41;19.44;73.97
64652;HTU21D;51062;45.120;37.660;2023-07-13T02:10:08;19.46;73.93
64652;HTU21D;51062;45.120;37.660;2023-07-13T02:12:35;19.46;73.92
64652;HTU21D;51062;45.120;37.660;2023-07-13T02:15:01;19.44;73.92
64652;HTU21D;51062;45.120;37.660;2023-07-13T02:17:28;19.40;73.96
64652;HTU21D;51062;45.120;37.660;2023-07-13T02:19:54;19.40;74.04
64652;HTU21D;51062;45.120;37.660;2023-07-13T02:22:20;19.42;74.06
64652;HTU21D;51062;45.120;37.660;2023-07-13T02:24:47;19.43;74.09
64652;HTU21D;51062;45.120;37.660;2023-07-13T02:27:13;19.45;74.09
64652;HTU21D;51062;45.120;37.660;2023-07-13T02:29:39;19.48;74.09
64652;HTU21D;51062;45.120;37.660;2023-07-13T02:32:06;19.54;74.08
64652;HTU21D;51062;45.120;37.660;2023-07-13T02:34:33;19.60;74.07
64652;HTU21D;51062;45.120;37.660;2023-07-13T02:36:59;19.66;74.02
64652;HTU21D;51062;45.120;37.660;2023-07-13T02:39:26;19.72;73.97
64652;HTU21D;51062;45.120;37.660;2023-07-13T02:41:52;19.81;73.90
64652;HTU21D;51062;45.120;37.660;2023-07-13T02:44:18;19.90;73.80
64652;HTU21D;51062;45.120;37.660;2023-07-13T02:46:44;20.05;73.73
64652;HTU21D;51062;45.120;37.660;2023-07-13T02:49:10;20.21;73.61
64652;HTU21D;51062;45.120;37.660;2023-07-13T02:51:36;20.34;73.57
64652;HTU21D;51062;45.120;37.660;2023-07-13T02:54:04;20.55;73.57
64652;HTU21D;51062;45.120;37.660;2023-07-13T02:56:31;20.96;74.00
64652;HTU21D;51062;45.120;37.660;2023-07-13T02:58:58;21.59;74.59
64652;HTU21D;51062;45.120;37.660;2023-07-13T03:01:24;22.22;74.80
64652;HTU21D;51062;45.120;37.660;2023-07-13T03:03:52;22.86;74.83
64652;HTU21D;51062;45.120;37.660;2023-07-13T03:06:19;23.51;74.53
64652;HTU21D;51062;45.120;37.660;2023-07-13T03:08:50;24.17;74.05
64652;HTU21D;51062;45.120;37.660;2023-07-13T03:11:19;24.78;73.48
64652;HTU21D;51062;45.120;37.660;2023-07-13T03:13:50;25.35;72.83
64652;HTU21D;51062;45.120;37.660;2023-07-13T03:16:16;25.80;72.10
64652;HTU21D;51062;45.120;37.660;2023-07-13T03:18:46;26.24;71.58
64652;HTU21D;51062;45.120;37.660;2023-07-13T03:21:12;26.65;71.23
64652;HTU21D;51062;45.120;37.660;2023-07-13T03:23:39;26.99;70.87
64652;HTU21D;51062;45.120;37.660;2023-07-13T03:26:14;27.27;70.42
64652;HTU21D;51062;45.120;37.660;2023-07-13T03:28:41;27.49;70.03
64652;HTU21D;51062;45.120;37.660;2023-07-13T03:31:14;27.74;69.55
64652;HTU21D;51062;45.120;37.660;2023-07-13T03:33:41;27.95;69.18
64652;HTU21D;51062;45.120;37.660;2023-07-13T03:36:16;28.15;68.98
64652;HTU21D;51062;45.120;37.660;2023-07-13T03:38:47;28.47;68.40
64652;HTU21D;51062;45.120;37.660;2023-07-13T03:41:15;28.79;67.97
64652;HTU21D;51062;45.120;37.660;2023-07-13T03:43:43;29.08;67.33
64652;HTU21D;51062;45.120;37.660;2023-07-13T03:46:10;29.38;66.68
64652;HTU21D;51062;45.120;37.660;2023-07-13T03:48:36;29.66;66.11
64652;HTU21D;51062;45.120;37.660;2023-07-13T03:51:03;30.01;65.40
64652;HTU21D;51062;45.120;37.660;2023-07-13T03:53:29;30.39;64.53
64652;HTU21D;51062;45.120;37.660;2023-07-13T03:55:55;30.76;63.73
64652;HTU21D;51062;45.120;37.660;2023-07-13T03:58:26;31.04;63.00
64652;HTU21D;51062;45.120;37.660;2023-07-13T04:00:55;31.23;62.83
64652;HTU21D;51062;45.120;37.660;2023-07-13T04:03:21;31.31;62.79
64652;HTU21D;51062;45.120;37.660;2023-07-13T04:05:47;31.02;63.07
64652;HTU21D;51062;45.120;37.660;2023-07-13T04:08:13;30.57;63.13
64652;HTU21D;51062;45.120;37.660;2023-07-13T04:10:40;30.18;62.76
64652;HTU21D;51062;45.120;37.660;2023-07-13T04:13:05;30.06;61.98
64652;HTU21D;51062;45.120;37.660;2023-07-13T04:15:32;30.32;60.86
64652;HTU21D;51062;45.120;37.660;2023-07-13T04:17:58;30.76;60.14
64652;HTU21D;51062;45.120;37.660;2023-07-13T04:20:25;31.24;59.48
64652;HTU21D;51062;45.120;37.660;2023-07-13T04:22:52;31.65;59.16
64652;HTU21D;51062;45.120;37.660;2023-07-13T04:25:19;32.11;58.64
64652;HTU21D;51062;45.120;37.660;2023-07-13T04:27:46;32.59;57.80
64652;HTU21D;51062;45.120;37.660;2023-07-13T04:30:12;32.90;56.90
64652;HTU21D;51062;45.120;37.660;2023-07-13T04:32:38;33.00;56.56
64652;HTU21D;51062;45.120;37.660;2023-07-13T04:35:04;33.23;56.05
64652;HTU21D;51062;45.120;37.660;2023-07-13T04:37:30;33.44;55.39
64652;HTU21D;51062;45.120;37.660;2023-07-13T04:39:56;33.71;54.89
64652;HTU21D;51062;45.120;37.660;2023-07-13T04:42:22;34.09;54.04
64652;HTU21D;51062;45.120;37.660;2023-07-13T04:44:50;34.44;52.98
64652;HTU21D;51062;45.120;37.660;2023-07-13T04:47:16;34.54;52.36
64652;HTU21D;51062;45.120;37.660;2023-07-13T04:49:42;34.55;52.19
64652;HTU21D;51062;45.120;37.660;2023-07-13T04:52:08;34.68;51.87
64652;HTU21D;51062;45.120;37.660;2023-07-13T04:54:35;34.83;51.37
64652;HTU21D;51062;45.120;37.660;2023-07-13T04:57:01;34.86;51.07
64652;HTU21D;51062;45.120;37.660;2023-07-13T04:59:27;35.01;50.65
64652;HTU21D;51062;45.120;37.660;2023-07-13T05:01:53;35.15;49.90
64652;HTU21D;51062;45.120;37.660;2023-07-13T05:04:19;35.08;49.68
64652;HTU21D;51062;45.120;37.660;2023-07-13T05:06:45;35.09;49.08
64652;HTU21D;51062;45.120;37.660;2023-07-13T05:09:11;35.04;48.99
64652;HTU21D;51062;45.120;37.660;2023-07-13T05:11:38;35.20;48.58
64652;HTU21D;51062;45.120;37.660;2023-07-13T05:14:05;35.38;48.21
64652;HTU21D;51062;45.120;37.660;2023-07-13T05:16:31;35.63;47.80
64652;HTU21D;51062;45.120;37.660;2023-07-13T05:18:58;35.90;47.20
64652;HTU21D;51062;45.120;37.660;2023-07-13T05:21:24;36.13;46.42
64652;HTU21D;51062;45.120;37.660;2023-07-13T05:23:50;35.93;46.14
64652;HTU21D;51062;45.120;37.660;2023-07-13T05:26:16;35.74;46.35
64652;HTU21D;51062;45.120;37.660;2023-07-13T05:28:42;35.49;46.20
64652;HTU21D;51062;45.120;37.660;2023-07-13T05:31:09;34.66;46.47
64652;HTU21D;51062;45.120;37.660;2023-07-13T05:33:36;33.73;47.27
64652;HTU21D;51062;45.120;37.660;2023-07-13T05:36:02;33.14;48.07
64652;HTU21D;51062;45.120;37.660;2023-07-13T05:38:28;33.41;48.19
64652;HTU21D;51062;45.120;37.660;2023-07-13T05:40:56;33.88;47.70
64652;HTU21D;51062;45.120;37.660;2023-07-13T05:43:22;34.39;47.22
64652;HTU21D;51062;45.120;37.660;2023-07-13T05:45:48;34.90;46.62
64652;HTU21D;51062;45.120;37.660;2023-07-13T05:48:15;35.28;45.70
64652;HTU21D;51062;45.120;37.660;2023-07-13T05:50:41;35.64;45.12
64652;HTU21D;51062;45.120;37.660;2023-07-13T05:53:07;36.10;44.35
64652;HTU21D;51062;45.120;37.660;2023-07-13T05:55:33;36.45;43.71
64652;HTU21D;51062;45.120;37.660;2023-07-13T05:58:00;36.68;43.00
64652;HTU21D;51062;45.120;37.660;2023-07-13T06:00:27;36.88;42.86
64652;HTU21D;51062;45.120;37.660;2023-07-13T06:02:53;36.86;42.62
64652;HTU21D;51062;45.120;37.660;2023-07-13T06:05:19;36.99;42.46
64652;HTU21D;51062;45.120;37.660;2023-07-13T06:07:45;37.21;41.87
64652;HTU21D;51062;45.120;37.660;2023-07-13T06:10:11;37.34;41.44
64652;HTU21D;51062;45.120;37.660;2023-07-13T06:12:37;37.37;40.81
64652;HTU21D;51062;45.120;37.660;2023-07-13T06:15:03;36.95;40.67
64652;HTU21D;51062;45.120;37.660;2023-07-13T06:17:29;36.55;40.75
64652;HTU21D;51062;45.120;37.660;2023-07-13T06:19:56;36.58;40.84
64652;HTU21D;51062;45.120;37.660;2023-07-13T06:22:22;36.88;40.48
64652;HTU21D;51062;45.120;37.660;2023-07-13T06:24:48;37.20;40.00
64652;HTU21D;51062;45.120;37.660;2023-07-13T06:27:14;37.34;39.07
64652;HTU21D;51062;45.120;37.660;2023-07-13T06:29:40;37.15;38.76
64652;HTU21D;51062;45.120;37.660;2023-07-13T06:32:07;36.99;38.70
64652;HTU21D;51062;45.120;37.660;2023-07-13T06:34:33;36.99;38.62
64652;HTU21D;51062;45.120;37.660;2023-07-13T06:36:59;37.13;38.59
64652;HTU21D;51062;45.120;37.660;2023-07-13T06:39:25;37.30;37.92
64652;HTU21D;51062;45.120;37.660;2023-07-13T06:41:51;37.32;37.62
64652;HTU21D;51062;45.120;37.660;2023-07-13T06:44:17;37.16;37.22
64652;HTU21D;51062;45.120;37.660;2023-07-13T06:46:43;36.88;37.27
64652;HTU21D;51062;45.120;37.660;2023-07-13T06:49:09;36.93;37.24
64652;HTU21D;51062;45.120;37.660;2023-07-13T06:51:35;37.11;37.22
64652;HTU21D;51062;45.120;37.660;2023-07-13T06:54:02;37.02;37.01
64652;HTU21D;51062;45.120;37.660;2023-07-13T06:56:28;36.36;37.22
64652;HTU21D;51062;45.120;37.660;2023-07-13T06:58:54;36.22;37.76
64652;HTU21D;51062;45.120;37.660;2023-07-13T07:01:20;36.41;37.39
64652;HTU21D;51062;45.120;37.660;2023-07-13T07:03:46;36.21;37.46
64652;HTU21D;51062;45.120;37.660;2023-07-13T07:06:20;35.44;37.87
64652;HTU21D;51062;45.120;37.660;2023-07-13T07:08:51;34.47;38.79
64652;HTU21D;51062;45.120;37.660;2023-07-13T07:11:19;33.55;39.67
64652;HTU21D;51062;45.120;37.660;2023-07-13T07:13:46;32.74;40.48
64652;HTU21D;51062;45.120;37.660;2023-07-13T07:16:12;32.07;41.21
64652;HTU21D;51062;45.120;37.660;2023-07-13T07:18:38;31.54;41.98
64652;HTU21D;51062;45.120;37.660;2023-07-13T07:21:04;31.74;42.74
64652;HTU21D;51062;45.120;37.660;2023-07-13T07:23:30;32.61;42.36
64652;HTU21D;51062;45.120;37.660;2023-07-13T07:25:56;33.53;41.57
64652;HTU21D;51062;45.120;37.660;2023-07-13T07:28:22;34.15;40.67
64652;HTU21D;51062;45.120;37.660;2023-07-13T07:30:49;34.59;40.53
64652;HTU21D;51062;45.120;37.660;2023-07-13T07:33:18;35.07;40.41
64652;HTU21D;51062;45.120;37.660;2023-07-13T07:35:44;35.51;40.07
64652;HTU21D;51062;45.120;37.660;2023-07-13T07:38:10;35.85;39.59
64652;HTU21D;51062;45.120;37.660;2023-07-13T07:40:38;35.52;39.27
64652;HTU21D;51062;45.120;37.660;2023-07-13T07:43:05;34.76;39.65
64652;HTU21D;51062;45.120;37.660;2023-07-13T07:45:31;33.99;40.23
64652;HTU21D;51062;45.120;37.660;2023-07-13T07:47:57;33.45;40.92
64652;HTU21D;51062;45.120;37.660;2023-07-13T07:50:27;33.75;40.92
64652;HTU21D;51062;45.120;37.660;2023-07-13T07:52:54;34.05;40.39
64652;HTU21D;51062;45.120;37.660;2023-07-13T07:55:24;34.07;40.28
64652;HTU21D;51062;45.120;37.660;2023-07-13T07:57:55;33.65;40.49
64652;HTU21D;51062;45.120;37.660;2023-07-13T08:00:22;33.27;41.20
64652;HTU21D;51062;45.120;37.660;2023-07-13T08:02:48;33.49;41.25
64652;HTU21D;51062;45.120;37.660;2023-07-13T08:05:14;33.86;40.80
64652;HTU21D;51062;45.120;37.660;2023-07-13T08:07:40;34.19;40.32
64652;HTU21D;51062;45.120;37.660;2023-07-13T08:10:07;34.01;40.10
64652;HTU21D;51062;45.120;37.660;2023-07-13T08:12:37;33.72;40.33
64652;HTU21D;51062;45.120;37.660;2023-07-13T08:15:04;33.51;40.49
64652;HTU21D;51062;45.120;37.660;2023-07-13T08:17:31;33.12;40.61
64652;HTU21D;51062;45.120;37.660;2023-07-13T08:19:58;32.60;41.31
64652;HTU21D;51062;45.120;37.660;2023-07-13T08:22:25;32.24;41.72
64652;HTU21D;51062;45.120;37.660;2023-07-13T08:24:50;32.15;42.07
64652;HTU21D;51062;45.120;37.660;2023-07-13T08:27:25;32.24;42.35
64652;HTU21D;51062;45.120;37.660;2023-07-13T08:29:52;32.30;42.07
64652;HTU21D;51062;45.120;37.660;2023-07-13T08:32:20;32.12;42.19
64652;HTU21D;51062;45.120;37.660;2023-07-13T08:34:46;31.83;42.33
64652;HTU21D;51062;45.120;37.660;2023-07-13T08:37:13;31.43;42.79
64652;HTU21D;51062;45.120;37.660;2023-07-13T08:39:39;31.11;43.22
64652;HTU21D;51062;45.120;37.660;2023-07-13T08:42:27;30.94;43.39
64652;HTU21D;51062;45.120;37.660;2023-07-13T08:45:11;30.93;43.82
64652;HTU21D;51062;45.120;37.660;2023-07-13T08:47:42;31.15;43.60
64652;HTU21D;51062;45.120;37.660;2023-07-13T08:50:12;31.34;43.39
64652;HTU21D;51062;45.120;37.660;2023-07-13T08:52:41;31.46;43.61
64652;HTU21D;51062;45.120;37.660;2023-07-13T08:55:15;31.70;43.51
64652;HTU21D;51062;45.120;37.660;2023-07-13T08:57:44;31.81;43.39
64652;HTU21D;51062;45.120;37.660;2023-07-13T09:00:12;31.99;43.30
64652;HTU21D;51062;45.120;37.660;2023-07-13T09:02:59;32.22;43.21
64652;HTU21D;51062;45.120;37.660;2023-07-13T09:05:31;32.28;42.97
64652;HTU21D;51062;45.120;37.660;2023-07-13T09:10:49;32.34;42.81
64652;HTU21D;51062;45.120;37.660;2023-07-13T09:13:37;32.08;42.68
64652;HTU21D;51062;45.120;37.660;2023-07-13T09:16:06;31.87;42.46
64652;HTU21D;51062;45.120;37.660;2023-07-13T09:18:36;31.82;42.15
64652;HTU21D;51062;45.120;37.660;2023-07-13T09:21:09;31.85;41.39
64652;HTU21D;51062;45.120;37.660;2023-07-13T09:23:37;31.78;41.33
64652;HTU21D;51062;45.120;37.660;2023-07-13T09:28:42;31.23;41.84
64652;HTU21D;51062;45.120;37.660;2023-07-13T09:31:26;31.20;42.27
64652;HTU21D;51062;45.120;37.660;2023-07-13T09:33:55;31.24;42.15
64652;HTU21D;51062;45.120;37.660;2023-07-13T09:36:25;31.10;42.13
64652;HTU21D;51062;45.120;37.660;2023-07-13T09:41:37;30.77;42.77
64652;HTU21D;51062;45.120;37.660;2023-07-13T09:44:08;30.85;42.98
64652;HTU21D;51062;45.120;37.660;2023-07-13T09:46:35;31.00;42.88
64652;HTU21D;51062;45.120;37.660;2023-07-13T09:49:01;31.00;42.79
64652;HTU21D;51062;45.120;37.660;2023-07-13T09:51:27;31.02;43.00
64652;HTU21D;51062;45.120;37.660;2023-07-13T09:53:53;31.15;43.08
64652;HTU21D;51062;45.120;37.660;2023-07-13T09:56:26;31.13;42.88
64652;HTU21D;51062;45.120;37.660;2023-07-13T09:58:53;31.07;42.96
64652;HTU21D;51062;45.120;37.660;2023-07-13T10:01:37;31.12;42.93
64652;HTU21D;51062;45.120;37.660;2023-07-13T10:04:13;31.09;42.79
64652;HTU21D;51062;45.120;37.660;2023-07-13T10:06:40;30.91;42.77
64652;HTU21D;51062;45.120;37.660;2023-07-13T10:09:09;30.69;43.03
64652;HTU21D;51062;45.120;37.660;2023-07-13T10:11:36;30.52;43.25
64652;HTU21D;51062;45.120;37.660;2023-07-13T10:14:11;30.49;43.46
64652;HTU21D;51062;45.120;37.660;2023-07-13T10:16:39;30.53;43.66
64652;HTU21D;51062;45.120;37.660;2023-07-13T10:19:20;30.63;43.61
64652;HTU21D;51062;45.120;37.660;2023-07-13T10:24:26;30.71;43.69
64652;HTU21D;51062;45.120;37.660;2023-07-13T10:27:10;30.72;43.94
64652;HTU21D;51062;45.120;37.660;2023-07-13T10:29:40;30.75;43.89
64652;HTU21D;51062;45.120;37.660;2023-07-13T10:32:10;30.68;44.03
64652;HTU21D;51062;45.120;37.660;2023-07-13T10:34:37;30.76;44.29
64652;HTU21D;51062;45.120;37.660;2023-07-13T10:37:05;30.82;44.16
64652;HTU21D;51062;45.120;37.660;2023-07-13T10:39:35;30.64;44.14
64652;HTU21D;51062;45.120;37.660;2023-07-13T10:42:05;30.50;44.35
64652;HTU21D;51062;45.120;37.660;2023-07-13T10:44:33;30.39;44.49
64652;HTU21D;51062;45.120;37.660;2023-07-13T10:47:06;30.30;44.67
64652;HTU21D;51062;45.120;37.660;2023-07-13T10:49:34;30.33;44.98
64652;HTU21D;51062;45.120;37.660;2023-07-13T10:52:02;30.48;44.90
64652;HTU21D;51062;45.120;37.660;2023-07-13T10:57:19;30.45;44.67
64652;HTU21D;51062;45.120;37.660;2023-07-13T11:00:16;30.22;44.83
64652;HTU21D;51062;45.120;37.660;2023-07-13T11:02:43;30.09;45.06
64652;HTU21D;51062;45.120;37.660;2023-07-13T11:07:54;30.02;45.40
64652;HTU21D;51062;45.120;37.660;2023-07-13T11:10:54;30.26;45.36
64652;HTU21D;51062;45.120;37.660;2023-07-13T11:21:33;30.61;45.45
64652;HTU21D;51062;45.120;37.660;2023-07-13T11:24:16;30.75;45.36
64652;HTU21D;51062;45.120;37.660;2023-07-13T11:31:52;30.78;45.29
64652;HTU21D;51062;45.120;37.660;2023-07-13T11:34:26;30.65;45.51
64652;HTU21D;51062;45.120;37.660;2023-07-13T11:36:53;30.66;45.74
64652;HTU21D;51062;45.120;37.660;2023-07-13T11:39:28;30.69;45.77
64652;HTU21D;51062;45.120;37.660;2023-07-13T11:42:02;30.60;45.80
64652;HTU21D;51062;45.120;37.660;2023-07-13T11:44:30;30.57;46.00
64652;HTU21D;51062;45.120;37.660;2023-07-13T11:47:00;30.64;45.77
64652;HTU21D;51062;45.120;37.660;2023-07-13T11:49:31;30.55;45.80
64652;HTU21D;51062;45.120;37.660;2023-07-13T11:51:58;30.48;45.96
64652;HTU21D;51062;45.120;37.660;2023-07-13T11:54:26;30.54;46.14
64652;HTU21D;51062;45.120;37.660;2023-07-13T11:56:59;30.68;46.02
64652;HTU21D;51062;45.120;37.660;2023-07-13T11:59:29;30.76;45.83
64652;HTU21D;51062;45.120;37.660;2023-07-13T12:01:56;30.65;45.81
64652;HTU21D;51062;45.120;37.660;2023-07-13T12:04:26;30.50;45.96
64652;HTU21D;51062;45.120;37.660;2023-07-13T12:07:17;30.38;46.07
64652;HTU21D;51062;45.120;37.660;2023-07-13T12:09:43;30.20;46.06
64652;HTU21D;51062;45.120;37.660;2023-07-13T12:12:17;30.12;46.38
64652;HTU21D;51062;45.120;37.660;2023-07-13T12:14:44;30.17;46.40
64652;HTU21D;51062;45.120;37.660;2023-07-13T12:17:21;30.23;46.36
64652;HTU21D;51062;45.120;37.660;2023-07-13T12:19:48;30.27;46.27
64652;HTU21D;51062;45.120;37.660;2023-07-13T12:22:17;30.27;46.04
64652;HTU21D;51062;45.120;37.660;2023-07-13T12:24:44;30.26;46.12
64652;HTU21D;51062;45.120;37.660;2023-07-13T12:27:25;30.22;46.05
64652;HTU21D;51062;45.120;37.660;2023-07-13T12:32:24;29.92;46.35
64652;HTU21D;51062;45.120;37.660;2023-07-13T12:35:15;29.75;46.54
64652;HTU21D;51062;45.120;37.660;2023-07-13T12:37:46;29.52;46.73
64652;HTU21D;51062;45.120;37.660;2023-07-13T12:40:19;29.38;47.07
64652;HTU21D;51062;45.120;37.660;2023-07-13T12:42:50;29.42;47.18
64652;HTU21D;51062;45.120;37.660;2023-07-13T12:45:22;29.41;47.14
64652;HTU21D;51062;45.120;37.660;2023-07-13T12:47:56;29.32;47.20
64652;HTU21D;51062;45.120;37.660;2023-07-13T12:50:30;29.27;47.34
64652;HTU21D;51062;45.120;37.660;2023-07-13T12:53:01;29.28;47.38
64652;HTU21D;51062;45.120;37.660;2023-07-13T12:55:29;29.33;47.42
64652;HTU21D;51062;45.120;37.660;2023-07-13T12:57:59;29.28;47.47
64652;HTU21D;51062;45.120;37.660;2023-07-13T13:00:33;29.26;47.59
64652;HTU21D;51062;45.120;37.660;2023-07-13T13:03:15;29.22;47.51
64652;HTU21D;51062;45.120;37.660;2023-07-13T13:05:46;29.14;47.62
64652;HTU21D;51062;45.120;37.660;2023-07-13T13:08:12;29.13;47.67
64652;HTU21D;51062;45.120;37.660;2023-07-13T13:10:38;29.13;47.64
64652;HTU21D;51062;45.120;37.660;2023-07-13T13:13:05;29.13;47.70
64652;HTU21D;51062;45.120;37.660;2023-07-13T13:15:31;29.12;47.67
64652;HTU21D;51062;45.120;37.660;2023-07-13T13:17:58;29.12;47.76
64652;HTU21D;51062;45.120;37.660;2023-07-13T13:20:25;29.14;47.76
64652;HTU21D;51062;45.120;37.660;2023-07-13T13:22:54;29.14;47.71
64652;HTU21D;51062;45.120;37.660;2023-07-13T13:25:20;29.09;47.68
64652;HTU21D;51062;45.120;37.660;2023-07-13T13:27:48;29.07;47.69
64652;HTU21D;51062;45.120;37.660;2023-07-13T13:30:17;29.05;47.63
64652;HTU21D;51062;45.120;37.660;2023-07-13T13:32:46;29.02;47.59
64652;HTU21D;51062;45.120;37.660;2023-07-13T13:35:14;28.99;47.57
64652;HTU21D;51062;45.120;37.660;2023-07-13T13:37:41;28.95;47.57
64652;HTU21D;51062;45.120;37.660;2023-07-13T13:40:19;28.91;47.50
64652;HTU21D;51062;45.120;37.660;2023-07-13T13:42:45;28.87;47.50
64652;HTU21D;51062;45.120;37.660;2023-07-13T13:45:12;28.86;47.46
64652;HTU21D;51062;45.120;37.660;2023-07-13T13:47:44;28.79;47.46
64652;HTU21D;51062;45.120;37.660;2023-07-13T13:50:17;28.77;47.55
64652;HTU21D;51062;45.120;37.660;2023-07-13T13:52:44;28.77;47.53
64652;HTU21D;51062;45.120;37.660;2023-07-13T13:57:39;28.76;47.58
64652;HTU21D;51062;45.120;37.660;2023-07-13T14:00:07;28.75;47.57
64652;HTU21D;51062;45.120;37.660;2023-07-13T14:02:34;28.71;47.57
64652;HTU21D;51062;45.120;37.660;2023-07-13T14:05:03;28.67;47.63
64652;HTU21D;51062;45.120;37.660;2023-07-13T14:07:31;28.62;47.58
64652;HTU21D;51062;45.120;37.660;2023-07-13T14:09:58;28.58;47.51
64652;HTU21D;51062;45.120;37.660;2023-07-13T14:12:27;28.52;47.48
64652;HTU21D;51062;45.120;37.660;2023-07-13T14:14:57;28.45;47.54
64652;HTU21D;51062;45.120;37.660;2023-07-13T14:17:27;28.41;47.54
64652;HTU21D;51062;45.120;37.660;2023-07-13T14:19:54;28.39;47.55
64652;HTU21D;51062;45.120;37.660;2023-07-13T14:22:24;28.37;47.63
64652;HTU21D;51062;45.120;37.660;2023-07-13T14:24:54;28.34;47.70
64652;HTU21D;51062;45.120;37.660;2023-07-13T14:27:21;28.32;47.79
64652;HTU21D;51062;45.120;37.660;2023-07-13T14:29:47;28.31;47.86
64652;HTU21D;51062;45.120;37.660;2023-07-13T14:32:14;28.30;47.86
64652;HTU21D;51062;45.120;37.660;2023-07-13T14:34:40;28.27;47.82
64652;HTU21D;51062;45.120;37.660;2023-07-13T14:37:12;28.28;47.86
64652;HTU21D;51062;45.120;37.660;2023-07-13T14:39:39;28.25;47.87
64652;HTU21D;51062;45.120;37.660;2023-07-13T14:42:05;28.17;47.99
64652;HTU21D;51062;45.120;37.660;2023-07-13T14:44:32;28.10;48.05
64652;HTU21D;51062;45.120;37.660;2023-07-13T14:47:01;28.03;48.14
64652;HTU21D;51062;45.120;37.660;2023-07-13T14:49:34;27.97;48.26
64652;HTU21D;51062;45.120;37.660;2023-07-13T14:52:08;27.91;48.36
64652;HTU21D;51062;45.120;37.660;2023-07-13T14:54:36;27.87;48.50
64652;HTU21D;51062;45.120;37.660;2023-07-13T14:57:15;27.85;48.58
64652;HTU21D;51062;45.120;37.660;2023-07-13T14:59:41;27.82;48.63
64652;HTU21D;51062;45.120;37.660;2023-07-13T15:02:34;27.78;48.69
64652;HTU21D;51062;45.120;37.660;2023-07-13T15:05:00;27.73;48.79
64652;HTU21D;51062;45.120;37.660;2023-07-13T15:07:27;27.67;48.95
64652;HTU21D;51062;45.120;37.660;2023-07-13T15:09:53;27.63;49.07
64652;HTU21D;51062;45.120;37.660;2023-07-13T15:12:19;27.58;49.21
64652;HTU21D;51062;45.120;37.660;2023-07-13T15:14:45;27.50;49.34
64652;HTU21D;51062;45.120;37.660;2023-07-13T15:19:59;27.37;49.61
64652;HTU21D;51062;45.120;37.660;2023-07-13T15:22:26;27.34;49.74
64652;HTU21D;51062;45.120;37.660;2023-07-13T15:24:51;27.29;49.84
64652;HTU21D;51062;45.120;37.660;2023-07-13T15:27:18;27.23;50.00
64652;HTU21D;51062;45.120;37.660;2023-07-13T15:29:44;27.17;50.11
64652;HTU21D;51062;45.120;37.660;2023-07-13T15:32:14;27.11;50.29
64652;HTU21D;51062;45.120;37.660;2023-07-13T15:34:40;27.05;50.43
64652;HTU21D;51062;45.120;37.660;2023-07-13T15:37:16;26.99;50.65
64652;HTU21D;51062;45.120;37.660;2023-07-13T15:39:42;26.93;50.73
64652;HTU21D;51062;45.120;37.660;2023-07-13T15:42:20;26.86;50.95
64652;HTU21D;51062;45.120;37.660;2023-07-13T15:44:46;26.81;51.01
64652;HTU21D;51062;45.120;37.660;2023-07-13T15:47:14;26.75;51.13
64652;HTU21D;51062;45.120;37.660;2023-07-13T15:49:41;26.68;51.22
64652;HTU21D;51062;45.120;37.660;2023-07-13T15:52:17;26.61;51.40